Time;durP1;ratioP1;P1;durP2;ratioP2;P2;SDS_P1;SDS_P2;PMS_P1;PMS_P2;Temp;Humidity;BMP_temperature;BMP_pressure;BME280_temperature;BME280_humidity;BME280_pressure;Samples;Min_cycle;Max_cycle;Signal;HPM_P1;HPM_P2
2023/07/14 00:02:01;;;;;;;7.10;2.97;;;21.20;82.20;;;;;;4127485;28;20066;-52
2023/07/14 00:04:10;;;;;;;6.35;2.50;;;21.10;82.60;;;;;;4116519;28;20051;-52
2023/07/14 00:06:13;;;;;;;5.63;2.58;;;21.10;82.60;;;;;;4116493;28;20145;-53
2023/07/14 00:08:18;;;;;;;6.20;2.92;;;21.10;82.80;;;;;;4099141;28;20173;-53
2023/07/14 00:10:22;;;;;;;4.93;2.72;;;21.00;83.20;;;;;;4116088;28;20047;-51
2023/07/14 00:12:26;;;;;;;22.48;11.65;;;20.90;83.50;;;;;;4116246;28;20085;-53
2023/07/14 00:14:29;;;;;;;12.10;6.60;;;21.00;82.90;;;;;;4115854;28;20043;-50
2023/07/14 00:16:36;;;;;;;13.15;6.82;;;21.00;83.50;;;;;;4116198;28;20126;-52
2023/07/14 00:18:38;;;;;;;14.95;8.27;;;21.00;83.30;;;;;;4114473;28;20130;-52
2023/07/14 00:20:40;;;;;;;12.32;6.82;;;21.00;83.20;;;;;;4098984;29;20102;-56
2023/07/14 00:22:43;;;;;;;10.70;4.78;;;21.00;83.30;;;;;;4116297;28;20442;-52
2023/07/14 00:24:45;;;;;;;15.70;5.70;;;21.00;83.20;;;;;;4116273;28;20051;-53
2023/07/14 00:26:50;;;;;;;9.73;4.95;;;21.00;83.30;;;;;;4116418;28;20047;-56
2023/07/14 00:28:54;;;;;;;7.65;4.68;;;21.00;83.20;;;;;;4114983;28;20564;-59
2023/07/14 00:30:56;;;;;;;6.85;3.80;;;20.90;83.40;;;;;;4116278;28;20047;-60
2023/07/14 00:32:58;;;;;;;11.68;3.60;;;20.90;83.10;;;;;;4116078;28;20121;-53
2023/07/14 00:35:10;;;;;;;7.75;4.03;;;20.90;83.10;;;;;;4115984;28;20053;-53
2023/07/14 00:37:13;;;;;;;6.70;3.50;;;21.00;83.00;;;;;;4116203;28;20050;-52
2023/07/14 00:39:15;;;;;;;6.88;3.67;;;21.00;83.10;;;;;;4127888;28;20453;-53
2023/07/14 00:41:20;;;;;;;12.20;5.38;;;20.90;83.70;;;;;;4132210;28;20049;-53
2023/07/14 00:43:29;;;;;;;12.43;6.45;;;20.90;83.40;;;;;;4131493;28;20054;-57
2023/07/14 00:45:34;;;;;;;13.43;6.50;;;20.90;83.30;;;;;;4130648;28;20050;-53
2023/07/14 00:47:37;;;;;;;11.85;6.50;;;20.80;83.80;;;;;;4131691;28;20054;-53
2023/07/14 00:49:40;;;;;;;11.27;7.18;;;20.80;83.80;;;;;;4130899;28;20038;-53
2023/07/14 00:51:44;;;;;;;17.40;8.73;;;20.80;83.70;;;;;;4131964;28;20050;-52
2023/07/14 00:53:46;;;;;;;21.58;11.52;;;20.80;84.50;;;;;;4131851;28;20053;-52
2023/07/14 00:55:55;;;;;;;22.30;11.25;;;20.80;83.70;;;;;;4131623;28;20359;-52
2023/07/14 00:57:58;;;;;;;23.50;12.75;;;20.80;83.70;;;;;;4131359;28;20070;-53
2023/07/14 01:00:11;;;;;;;21.10;12.80;;;20.80;83.70;;;;;;4130775;28;20046;-52
2023/07/14 01:02:22;;;;;;;19.50;12.18;;;20.90;83.70;;;;;;4125115;28;20056;-52
2023/07/14 01:04:25;;;;;;;18.27;12.15;;;20.90;83.70;;;;;;4098499;28;20147;-53
2023/07/14 01:06:31;;;;;;;20.15;10.32;;;20.80;84.30;;;;;;4098246;29;20105;-51
2023/07/14 01:08:35;;;;;;;15.13;7.60;;;20.80;84.20;;;;;;4114820;28;20047;-53
2023/07/14 01:10:37;;;;;;;12.40;6.55;;;20.80;84.00;;;;;;4098084;28;20130;-52
2023/07/14 01:12:42;;;;;;;11.48;5.57;;;20.80;83.90;;;;;;4114982;28;20134;-53
2023/07/14 01:14:50;;;;;;;12.75;6.53;;;20.70;84.10;;;;;;4115185;28;20074;-52
2023/07/14 01:16:54;;;;;;;18.40;8.43;;;20.70;84.50;;;;;;4115162;28;20047;-52
2023/07/14 01:18:59;;;;;;;20.05;9.48;;;20.60;84.50;;;;;;4097343;28;20494;-52
2023/07/14 01:21:01;;;;;;;22.95;11.35;;;20.70;84.40;;;;;;4115086;28;20117;-53
2023/07/14 01:23:13;;;;;;;27.75;9.95;;;20.60;84.70;;;;;;4082112;29;20138;-52
2023/07/14 01:25:28;;;;;;;19.20;9.40;;;20.60;84.70;;;;;;4115157;28;20058;-53
2023/07/14 01:27:32;;;;;;;26.90;11.10;;;20.60;84.80;;;;;;4115021;28;20462;-52
2023/07/14 01:29:34;;;;;;;20.85;11.88;;;20.50;85.00;;;;;;4114660;28;20043;-53
2023/07/14 01:31:37;;;;;;;22.02;10.40;;;20.50;85.10;;;;;;4098144;29;20122;-53
2023/07/14 01:33:39;;;;;;;24.27;8.38;;;20.50;84.80;;;;;;4115237;28;20051;-53
2023/07/14 01:35:46;;;;;;;16.83;7.82;;;20.50;85.00;;;;;;4115215;28;20482;-52
2023/07/14 01:37:49;;;;;;;18.50;8.43;;;20.40;85.10;;;;;;4116517;28;20117;-52
2023/07/14 01:39:52;;;;;;;20.10;9.48;;;20.50;85.10;;;;;;4130444;28;20057;-52
2023/07/14 01:41:54;;;;;;;18.67;9.65;;;20.50;85.40;;;;;;4130905;28;20133;-52
2023/07/14 01:44:03;;;;;;;16.50;7.82;;;20.40;85.60;;;;;;4131204;28;20050;-53
2023/07/14 01:46:07;;;;;;;16.38;7.50;;;20.30;85.70;;;;;;4129834;28;20084;-52
2023/07/14 01:48:13;;;;;;;13.43;7.35;;;20.40;85.90;;;;;;4131127;28;20058;-52
2023/07/14 01:50:20;;;;;;;10.57;4.88;;;20.30;85.70;;;;;;4130093;28;20761;-54
2023/07/14 01:52:27;;;;;;;9.23;4.40;;;20.30;85.90;;;;;;4131045;28;20038;-52
2023/07/14 01:54:35;;;;;;;9.57;3.90;;;20.30;85.80;;;;;;4130968;28;20050;-52
2023/07/14 01:56:38;;;;;;;7.25;3.85;;;20.30;85.70;;;;;;4130656;28;20046;-57
2023/07/14 01:58:50;;;;;;;6.55;3.55;;;20.30;85.80;;;;;;4130042;28;20050;-52
2023/07/14 02:00:54;;;;;;;8.15;3.28;;;20.30;85.80;;;;;;4130721;28;20465;-52
2023/07/14 02:02:59;;;;;;;5.67;3.03;;;20.30;85.70;;;;;;4118636;28;20051;-52
2023/07/14 02:05:05;;;;;;;5.72;3.53;;;20.20;86.30;;;;;;4114831;28;20452;-52
2023/07/14 02:07:12;;;;;;;6.65;3.20;;;20.20;86.10;;;;;;4114877;28;20509;-52
2023/07/14 02:09:17;;;;;;;5.63;3.58;;;20.20;86.00;;;;;;4114286;28;20137;-52
2023/07/14 02:11:22;;;;;;;9.15;3.53;;;20.20;86.20;;;;;;4114747;28;20150;-51
2023/07/14 02:13:24;;;;;;;7.07;3.03;;;20.20;86.00;;;;;;4114982;28;20050;-53
2023/07/14 02:15:31;;;;;;;5.32;3.25;;;20.20;86.30;;;;;;4115386;28;20059;-52
2023/07/14 02:17:36;;;;;;;7.93;3.42;;;20.10;86.50;;;;;;4100817;29;20050;-51
2023/07/14 02:19:38;;;;;;;8.35;3.35;;;20.10;86.60;;;;;;4117241;28;20042;-53
2023/07/14 02:21:41;;;;;;;8.65;3.78;;;20.10;86.50;;;;;;4118006;28;20039;-52
2023/07/14 02:23:44;;;;;;;11.02;3.97;;;20.10;87.50;;;;;;4117875;28;20062;-52
2023/07/14 02:25:52;;;;;;;9.13;3.65;;;20.10;86.60;;;;;;4117466;28;20157;-52
2023/07/14 02:27:54;;;;;;;8.63;3.88;;;20.00;87.10;;;;;;4117710;28;20057;-52
2023/07/14 02:29:59;;;;;;;10.48;4.60;;;20.00;87.10;;;;;;4116810;28;20043;-53
2023/07/14 02:32:12;;;;;;;10.25;4.15;;;20.00;87.70;;;;;;4118128;28;20446;-52
2023/07/14 02:34:17;;;;;;;15.00;5.30;;;19.90;87.70;;;;;;4117904;28;20051;-53
2023/07/14 02:36:30;;;;;;;9.93;4.53;;;19.90;87.50;;;;;;4118116;28;20057;-53
2023/07/14 02:38:32;;;;;;;10.25;4.68;;;19.90;88.00;;;;;;4125089;28;20132;-52
2023/07/14 02:40:37;;;;;;;19.40;5.25;;;19.80;88.20;;;;;;4132575;28;20129;-53
2023/07/14 02:42:40;;;;;;;9.32;4.78;;;19.80;88.40;;;;;;4133596;28;20042;-54
2023/07/14 02:44:42;;;;;;;13.82;4.82;;;19.80;88.40;;;;;;4133663;28;20465;-53
2023/07/14 02:46:48;;;;;;;10.52;4.57;;;19.70;88.70;;;;;;4133521;28;20046;-52
2023/07/14 02:48:52;;;;;;;10.52;4.65;;;19.70;88.40;;;;;;4133177;28;20073;-53
2023/07/14 02:50:56;;;;;;;11.18;4.40;;;19.70;88.50;;;;;;4133480;28;20424;-52
2023/07/14 02:52:58;;;;;;;8.98;4.75;;;19.70;88.80;;;;;;4133460;28;20149;-53
2023/07/14 02:55:00;;;;;;;9.27;4.80;;;19.70;88.70;;;;;;4133127;28;20137;-52
2023/07/14 02:57:03;;;;;;;8.45;4.07;;;19.70;88.50;;;;;;4133299;28;20046;-52
2023/07/14 02:59:09;;;;;;;9.85;4.35;;;19.70;88.70;;;;;;4132575;28;20054;-53
2023/07/14 03:01:11;;;;;;;8.38;4.20;;;19.70;88.90;;;;;;4133241;28;20112;-51
2023/07/14 03:03:13;;;;;;;10.90;4.70;;;19.70;88.60;;;;;;4087466;28;20055;-53
2023/07/14 03:05:17;;;;;;;8.52;4.53;;;19.70;88.80;;;;;;4101104;29;20047;-52
2023/07/14 03:07:21;;;;;;;9.45;4.38;;;19.70;88.90;;;;;;4101285;29;20051;-52
2023/07/14 03:09:23;;;;;;;16.55;5.03;;;19.60;89.20;;;;;;4100507;29;20047;-51
2023/07/14 03:11:25;;;;;;;9.93;5.45;;;19.60;89.30;;;;;;4101988;29;20134;-53
2023/07/14 03:13:27;;;;;;;11.63;5.25;;;19.60;89.20;;;;;;4102623;29;20047;-57
2023/07/14 03:15:29;;;;;;;12.52;5.60;;;19.50;89.40;;;;;;4102346;29;20075;-51
2023/07/14 03:17:31;;;;;;;13.75;6.68;;;19.60;89.40;;;;;;4101403;29;20051;-53
2023/07/14 03:19:34;;;;;;;15.70;7.75;;;19.60;89.20;;;;;;4100236;29;20051;-51
2023/07/14 03:21:36;;;;;;;12.00;6.57;;;19.60;88.90;;;;;;4101059;29;20050;-50
2023/07/14 03:23:40;;;;;;;11.13;6.78;;;19.60;89.10;;;;;;4100735;29;20086;-52
2023/07/14 03:25:42;;;;;;;10.90;5.93;;;19.50;89.40;;;;;;4100906;29;20510;-52
2023/07/14 03:27:45;;;;;;;11.30;6.43;;;19.50;89.30;;;;;;4099694;28;20555;-51
2023/07/14 03:29:48;;;;;;;11.02;6.90;;;19.50;89.80;;;;;;4100210;29;20098;-53
2023/07/14 03:31:50;;;;;;;10.23;6.47;;;19.50;90.00;;;;;;4101016;29;20491;-52
2023/07/14 03:33:52;;;;;;;11.30;6.00;;;19.50;89.70;;;;;;4100916;29;20059;-52
2023/07/14 03:35:54;;;;;;;9.93;5.90;;;19.50;89.90;;;;;;4101286;29;20124;-53
2023/07/14 03:37:56;;;;;;;9.05;5.60;;;19.50;90.00;;;;;;4105615;28;20077;-53
2023/07/14 03:40:00;;;;;;;11.10;5.88;;;19.50;89.90;;;;;;4132262;28;20046;-52
2023/07/14 03:42:03;;;;;;;11.20;6.17;;;19.50;90.00;;;;;;4133128;28;20534;-53
2023/07/14 03:44:05;;;;;;;11.35;6.28;;;19.50;89.70;;;;;;4133034;28;20990;-52
2023/07/14 03:46:07;;;;;;;10.40;5.82;;;19.50;90.00;;;;;;4133207;28;20435;-60
2023/07/14 03:48:09;;;;;;;11.98;6.20;;;19.50;89.80;;;;;;4133081;28;20038;-52
2023/07/14 03:50:13;;;;;;;11.00;6.25;;;19.50;89.90;;;;;;4132059;28;20052;-52
2023/07/14 03:52:15;;;;;;;14.48;5.75;;;19.50;89.90;;;;;;4132434;28;20050;-52
2023/07/14 03:54:17;;;;;;;15.50;6.47;;;19.50;89.80;;;;;;4132594;28;20147;-51
2023/07/14 03:56:21;;;;;;;11.27;5.82;;;19.50;90.00;;;;;;4131349;28;20046;-52
2023/07/14 03:58:23;;;;;;;12.23;6.07;;;19.50;89.60;;;;;;4132801;28;20090;-52
2023/07/14 04:00:25;;;;;;;14.95;6.03;;;19.60;89.50;;;;;;4131992;28;20049;-52
2023/07/14 04:02:27;;;;;;;13.50;6.20;;;19.60;89.50;;;;;;4124518;28;20049;-52
2023/07/14 04:04:29;;;;;;;10.52;6.57;;;19.70;89.20;;;;;;4116322;28;20745;-52
2023/07/14 04:06:31;;;;;;;12.10;6.25;;;19.70;89.40;;;;;;4116418;28;20424;-53
2023/07/14 04:08:36;;;;;;;18.58;6.38;;;19.80;89.20;;;;;;4116769;28;20483;-53
2023/07/14 04:10:38;;;;;;;13.35;6.78;;;19.80;89.40;;;;;;4115717;28;20097;-52
2023/07/14 04:12:41;;;;;;;11.63;6.60;;;19.80;89.50;;;;;;4116468;28;20383;-52
2023/07/14 04:14:44;;;;;;;12.93;6.70;;;19.80;89.40;;;;;;4116573;28;20051;-52
2023/07/14 04:16:46;;;;;;;10.00;6.15;;;19.70;89.70;;;;;;4116453;28;20085;-52
2023/07/14 04:18:48;;;;;;;12.10;6.55;;;19.80;89.30;;;;;;4116334;28;20089;-52
2023/07/14 04:20:50;;;;;;;10.57;6.47;;;19.80;89.40;;;;;;4115027;28;20077;-53
2023/07/14 04:22:52;;;;;;;13.30;6.63;;;19.80;89.40;;;;;;4115999;28;20101;-52
2023/07/14 04:24:54;;;;;;;12.00;6.72;;;19.80;89.50;;;;;;4116017;28;20055;-52
2023/07/14 04:26:57;;;;;;;10.45;6.25;;;19.80;89.50;;;;;;4098908;28;20225;-53
2023/07/14 04:29:00;;;;;;;19.20;6.47;;;19.90;89.40;;;;;;4116123;28;20051;-52
2023/07/14 04:31:03;;;;;;;14.43;6.85;;;19.90;89.40;;;;;;4115080;28;20102;-52
2023/07/14 04:33:05;;;;;;;11.38;6.45;;;19.90;89.40;;;;;;4116017;28;20081;-52
2023/07/14 04:35:07;;;;;;;14.55;6.53;;;19.90;89.50;;;;;;4115769;28;20391;-52
2023/07/14 04:37:10;;;;;;;13.65;6.32;;;19.90;89.30;;;;;;4115514;28;20049;-52
2023/07/14 04:39:13;;;;;;;14.73;6.45;;;20.00;89.10;;;;;;4085064;28;20051;-52
2023/07/14 04:41:15;;;;;;;10.55;5.22;;;20.00;89.10;;;;;;4099505;29;20051;-52
2023/07/14 04:43:18;;;;;;;12.90;5.82;;;20.10;88.80;;;;;;4099500;29;20485;-52
2023/07/14 04:45:22;;;;;;;11.88;5.70;;;20.00;89.00;;;;;;4099984;29;20078;-51
2023/07/14 04:47:24;;;;;;;12.32;5.15;;;19.90;88.80;;;;;;4099922;29;20477;-52
2023/07/14 04:49:26;;;;;;;14.30;4.90;;;20.00;88.50;;;;;;4099040;29;20047;-50
2023/07/14 04:51:29;;;;;;;8.88;4.70;;;20.00;88.30;;;;;;4082311;29;20126;-52
2023/07/14 04:53:32;;;;;;;8.40;4.53;;;20.00;88.50;;;;;;4099881;29;20127;-51
2023/07/14 04:55:35;;;;;;;10.73;4.85;;;20.00;88.40;;;;;;4100058;29;20130;-53
2023/07/14 04:57:37;;;;;;;9.77;4.70;;;20.00;88.20;;;;;;4099660;28;20083;-50
2023/07/14 04:59:40;;;;;;;10.00;4.82;;;20.10;88.10;;;;;;4114999;28;20081;-51
2023/07/14 05:01:44;;;;;;;11.38;5.07;;;20.10;88.30;;;;;;4115431;28;20043;-51
2023/07/14 05:03:47;;;;;;;11.52;4.80;;;20.10;89.00;;;;;;4115795;28;20465;-52
2023/07/14 05:05:49;;;;;;;11.93;4.72;;;20.00;88.40;;;;;;4114108;28;20085;-52
2023/07/14 05:07:52;;;;;;;11.75;4.97;;;20.00;88.30;;;;;;4115386;28;20582;-52
2023/07/14 05:09:54;;;;;;;12.60;4.90;;;20.00;88.50;;;;;;4113183;28;20559;-52
2023/07/14 05:11:56;;;;;;;8.35;4.63;;;20.00;88.50;;;;;;4115483;28;20098;-51
2023/07/14 05:14:04;;;;;;;6.43;4.25;;;19.90;88.70;;;;;;4115326;28;20121;-52
2023/07/14 05:16:11;;;;;;;9.30;4.22;;;20.00;88.70;;;;;;4115245;28;20054;-52
2023/07/14 05:18:16;;;;;;;11.60;4.50;;;20.00;88.60;;;;;;4115434;28;20101;-52
2023/07/14 05:20:19;;;;;;;10.40;4.78;;;20.00;88.50;;;;;;4114157;28;20453;-52
2023/07/14 05:22:22;;;;;;;6.95;3.78;;;20.10;88.50;;;;;;4115337;28;20047;-53
2023/07/14 05:24:24;;;;;;;7.70;3.40;;;20.00;88.00;;;;;;4113969;28;20058;-52
2023/07/14 05:26:26;;;;;;;7.88;3.42;;;20.00;88.10;;;;;;4115471;28;20462;-52
2023/07/14 05:28:28;;;;;;;5.75;3.20;;;20.00;87.70;;;;;;4115385;28;20053;-52
2023/07/14 05:30:31;;;;;;;13.40;3.28;;;20.10;87.70;;;;;;4114304;28;20182;-52
2023/07/14 05:32:33;;;;;;;6.07;2.95;;;20.00;87.90;;;;;;4115056;28;20070;-52
2023/07/14 05:34:37;;;;;;;11.32;3.60;;;20.00;88.60;;;;;;4114905;28;20515;-53
2023/07/14 05:36:39;;;;;;;8.25;3.22;;;20.10;88.30;;;;;;4115046;28;20054;-52
2023/07/14 05:38:41;;;;;;;5.50;2.95;;;20.10;88.70;;;;;;4114707;28;20065;-52
2023/07/14 05:40:43;;;;;;;13.38;3.30;;;20.20;89.10;;;;;;4114188;28;20075;-52
2023/07/14 05:42:59;;;;;;;7.65;2.80;;;20.20;89.80;;;;;;4115118;28;20137;-52
2023/07/14 05:45:03;;;;;;;7.97;3.00;;;20.20;90.10;;;;;;4114957;28;20101;-52
2023/07/14 05:47:05;;;;;;;5.32;2.72;;;20.20;90.10;;;;;;4130095;28;20050;-53
2023/07/14 05:49:08;;;;;;;7.38;2.72;;;20.20;88.90;;;;;;4114685;28;20129;-52
2023/07/14 05:51:13;;;;;;;5.60;3.08;;;20.30;89.80;;;;;;4115859;28;20126;-52
2023/07/14 05:53:17;;;;;;;8.77;2.15;;;20.30;90.00;;;;;;4118384;28;20054;-52
2023/07/14 05:55:19;;;;;;;4.65;2.28;;;20.40;88.40;;;;;;4118522;28;20605;-53
2023/07/14 05:57:21;;;;;;;37.53;3.80;;;20.40;88.10;;;;;;4118602;28;20090;-52
2023/07/14 05:59:23;;;;;;;7.28;2.50;;;20.40;87.20;;;;;;4146598;28;20050;-53
2023/07/14 06:01:25;;;;;;;5.55;2.38;;;20.40;86.80;;;;;;4150188;28;20049;-51
2023/07/14 06:03:28;;;;;;;6.55;1.90;;;20.50;87.00;;;;;;4134046;28;20497;-52
2023/07/14 06:05:31;;;;;;;8.13;2.63;;;20.50;87.00;;;;;;4134192;28;20051;-53
2023/07/14 06:07:35;;;;;;;8.43;2.88;;;20.40;87.30;;;;;;4134223;28;20505;-52
2023/07/14 06:09:38;;;;;;;4.40;2.10;;;20.50;86.80;;;;;;4133612;28;20473;-52
2023/07/14 06:11:40;;;;;;;5.72;1.75;;;20.50;87.10;;;;;;4134072;28;20124;-52
2023/07/14 06:13:42;;;;;;;4.20;2.15;;;20.50;87.00;;;;;;4134136;28;20446;-52
2023/07/14 06:15:46;;;;;;;7.85;2.08;;;20.50;86.40;;;;;;4134160;28;20138;-52
2023/07/14 06:17:48;;;;;;;5.15;2.35;;;20.50;86.00;;;;;;4133782;28;20080;-53
2023/07/14 06:19:51;;;;;;;4.65;2.08;;;20.60;86.20;;;;;;4133161;28;20046;-53
2023/07/14 06:21:53;;;;;;;7.25;2.30;;;20.60;85.60;;;;;;4134009;28;20439;-52
2023/07/14 06:23:57;;;;;;;4.30;2.25;;;20.60;85.20;;;;;;4133742;28;20093;-52
2023/07/14 06:25:59;;;;;;;5.13;2.10;;;20.80;85.50;;;;;;4134218;28;20046;-52
2023/07/14 06:28:01;;;;;;;5.28;2.28;;;20.80;84.90;;;;;;4134063;28;20051;-53
2023/07/14 06:30:04;;;;;;;6.22;2.20;;;20.90;84.90;;;;;;4133366;28;20050;-52
2023/07/14 06:32:07;;;;;;;6.15;2.35;;;21.00;85.00;;;;;;4132584;28;20053;-52
2023/07/14 06:34:09;;;;;;;5.72;2.08;;;21.10;84.40;;;;;;4133849;28;20082;-52
2023/07/14 06:36:12;;;;;;;3.58;2.20;;;21.10;83.50;;;;;;4133891;28;20069;-52
2023/07/14 06:38:14;;;;;;;7.97;2.70;;;21.10;83.70;;;;;;4133642;28;20080;-51
2023/07/14 06:40:20;;;;;;;6.80;2.05;;;21.10;83.70;;;;;;4132925;28;20072;-52
2023/07/14 06:42:22;;;;;;;4.65;2.28;;;21.20;83.40;;;;;;4133793;28;20050;-52
2023/07/14 06:44:25;;;;;;;10.15;2.47;;;21.30;83.30;;;;;;4133401;28;20054;-53
2023/07/14 06:46:28;;;;;;;5.80;2.40;;;21.30;82.60;;;;;;4133615;28;20052;-51
2023/07/14 06:48:30;;;;;;;9.15;2.60;;;21.40;82.90;;;;;;4116548;28;20066;-51
2023/07/14 06:50:35;;;;;;;9.32;2.58;;;21.40;82.50;;;;;;4132756;28;20069;-52
2023/07/14 06:52:38;;;;;;;7.60;2.17;;;21.50;82.60;;;;;;4133663;28;20454;-53
2023/07/14 06:54:40;;;;;;;9.63;3.33;;;21.50;82.30;;;;;;4133478;28;20133;-52
2023/07/14 06:56:45;;;;;;;6.60;2.70;;;21.50;81.90;;;;;;4133538;28;20145;-52
2023/07/14 06:58:47;;;;;;;12.70;3.30;;;21.60;81.90;;;;;;4133334;28;20058;-52
2023/07/14 07:00:49;;;;;;;5.82;2.50;;;21.60;81.90;;;;;;4132307;28;20050;-53
2023/07/14 07:02:51;;;;;;;7.07;2.50;;;21.60;81.90;;;;;;4121435;28;20142;-52
2023/07/14 07:04:56;;;;;;;8.60;2.55;;;21.70;82.10;;;;;;4117210;28;20054;-53
2023/07/14 07:06:58;;;;;;;4.28;2.72;;;21.70;81.70;;;;;;4117059;28;20081;-52
2023/07/14 07:09:00;;;;;;;7.22;3.10;;;21.70;81.70;;;;;;4117285;28;20051;-51
2023/07/14 07:11:03;;;;;;;10.90;4.22;;;21.70;81.40;;;;;;4116192;28;20109;-51
2023/07/14 07:13:06;;;;;;;7.82;3.55;;;21.70;81.60;;;;;;4116909;28;20046;-53
2023/07/14 07:15:09;;;;;;;7.53;4.28;;;21.80;81.50;;;;;;4116818;28;20039;-51
2023/07/14 07:17:11;;;;;;;7.90;3.20;;;21.90;80.80;;;;;;4099824;28;20044;-52
2023/07/14 07:19:15;;;;;;;10.77;3.75;;;22.10;80.80;;;;;;4116943;28;20043;-52
2023/07/14 07:21:17;;;;;;;8.07;3.20;;;22.30;81.10;;;;;;4115972;28;20053;-53
2023/07/14 07:23:19;;;;;;;5.80;3.05;;;22.30;80.40;;;;;;4116876;28;20053;-52
2023/07/14 07:25:21;;;;;;;7.68;3.65;;;22.40;80.30;;;;;;4117061;28;20478;-52
2023/07/14 07:27:23;;;;;;;9.45;3.40;;;22.50;79.50;;;;;;4099728;28;20047;-52
2023/07/14 07:29:27;;;;;;;10.80;3.35;;;22.60;79.90;;;;;;4116561;28;20057;-54
2023/07/14 07:31:29;;;;;;;10.30;2.92;;;22.60;80.00;;;;;;4115958;28;20042;-52
2023/07/14 07:33:32;;;;;;;7.72;3.08;;;22.60;79.50;;;;;;4116692;28;20046;-52
2023/07/14 07:35:37;;;;;;;10.48;3.40;;;22.70;79.00;;;;;;4099732;29;20487;-53
2023/07/14 07:37:39;;;;;;;9.82;3.65;;;22.70;78.80;;;;;;4116644;28;20491;-52
2023/07/14 07:39:42;;;;;;;6.47;3.50;;;22.80;78.60;;;;;;4132678;28;20054;-52
2023/07/14 07:41:45;;;;;;;10.63;3.50;;;22.90;78.20;;;;;;4131944;28;20042;-53
2023/07/14 07:43:47;;;;;;;6.53;3.20;;;23.00;78.40;;;;;;4132580;28;20405;-57
2023/07/14 07:45:51;;;;;;;10.90;3.20;;;23.00;78.30;;;;;;4132553;28;20053;-53
2023/07/14 07:47:53;;;;;;;7.80;3.00;;;23.00;78.30;;;;;;4132752;28;20108;-61
2023/07/14 07:49:55;;;;;;;6.93;2.80;;;23.00;77.30;;;;;;4131955;28;20402;-52
2023/07/14 07:51:58;;;;;;;10.52;3.40;;;23.10;77.10;;;;;;4115216;28;20053;-53
2023/07/14 07:54:00;;;;;;;5.57;3.42;;;23.00;77.00;;;;;;4132491;28;20042;-52
2023/07/14 07:56:03;;;;;;;6.72;3.72;;;23.00;76.30;;;;;;4132785;28;20053;-52
2023/07/14 07:58:05;;;;;;;8.15;3.40;;;23.20;76.60;;;;;;4132398;28;20410;-51
2023/07/14 08:00:11;;;;;;;9.93;3.67;;;23.40;76.30;;;;;;4130179;28;20051;-52
2023/07/14 08:02:16;;;;;;;7.75;3.15;;;23.50;76.30;;;;;;4125656;28;20476;-52
2023/07/14 08:04:19;;;;;;;10.65;3.70;;;23.60;75.60;;;;;;4116341;28;20420;-52
2023/07/14 08:06:24;;;;;;;13.77;3.38;;;23.70;75.70;;;;;;4116162;28;20046;-52
2023/07/14 08:08:26;;;;;;;14.23;3.30;;;23.80;75.10;;;;;;4116204;28;20090;-52
2023/07/14 08:10:28;;;;;;;8.10;3.30;;;23.80;74.50;;;;;;4115346;28;20069;-51
2023/07/14 08:12:30;;;;;;;5.20;3.28;;;23.60;74.80;;;;;;4116022;28;20097;-53
2023/07/14 08:14:49;;;;;;;5.15;3.08;;;23.60;74.80;;;;;;4115307;28;20062;-52
2023/07/14 08:16:51;;;;;;;5.40;3.15;;;23.70;74.90;;;;;;4116328;28;20077;-52
2023/07/14 08:18:56;;;;;;;16.00;3.72;;;23.90;75.50;;;;;;4083263;29;20123;-53
2023/07/14 08:20:58;;;;;;;11.15;3.60;;;24.00;75.00;;;;;;4115309;28;20402;-53
2023/07/14 08:23:03;;;;;;;5.35;3.08;;;24.20;74.90;;;;;;4115978;28;20062;-52
2023/07/14 08:25:09;;;;;;;9.75;3.40;;;24.30;74.10;;;;;;4116891;28;20174;-52
2023/07/14 08:27:11;;;;;;;6.53;3.35;;;24.50;73.80;;;;;;4116728;28;20050;-50
2023/07/14 08:29:13;;;;;;;11.95;4.10;;;24.50;73.70;;;;;;4116206;28;20395;-53
2023/07/14 08:31:15;;;;;;;13.50;3.92;;;24.40;72.90;;;;;;4115216;28;20053;-52
2023/07/14 08:33:18;;;;;;;17.60;4.47;;;24.40;73.40;;;;;;4115954;28;20144;-52
2023/07/14 08:35:22;;;;;;;10.18;3.47;;;24.60;73.40;;;;;;4099011;29;20051;-51
2023/07/14 08:37:24;;;;;;;9.23;3.67;;;24.70;73.20;;;;;;4115947;28;20509;-59
2023/07/14 08:39:26;;;;;;;7.90;3.03;;;24.80;72.60;;;;;;4130495;28;20050;-52
2023/07/14 08:41:33;;;;;;;9.77;3.67;;;24.70;72.70;;;;;;4130949;28;20077;-52
2023/07/14 08:43:45;;;;;;;74.35;7.85;;;24.50;72.30;;;;;;4131478;28;20046;-51
2023/07/14 08:45:54;;;;;;;8.43;3.70;;;24.60;74.20;;;;;;4131673;28;20050;-52
2023/07/14 08:48:05;;;;;;;6.47;3.38;;;24.60;73.70;;;;;;4131632;28;20082;-53
2023/07/14 08:50:16;;;;;;;11.05;3.30;;;24.60;74.60;;;;;;4130877;28;20438;-53
2023/07/14 08:52:24;;;;;;;8.77;3.20;;;24.40;73.60;;;;;;4131699;28;20074;-53
2023/07/14 08:54:32;;;;;;;10.20;3.40;;;24.30;73.20;;;;;;4131898;28;20054;-52
2023/07/14 08:56:35;;;;;;;18.38;3.65;;;24.40;73.80;;;;;;4131317;28;20054;-53
2023/07/14 08:58:41;;;;;;;8.95;3.58;;;24.60;73.40;;;;;;4131380;28;20059;-52
2023/07/14 09:00:46;;;;;;;10.75;3.60;;;24.60;73.10;;;;;;4130799;28;20104;-53
2023/07/14 09:02:55;;;;;;;6.82;3.53;;;24.70;73.20;;;;;;4120458;28;20078;-52
2023/07/14 09:05:01;;;;;;;7.47;3.00;;;24.80;73.10;;;;;;4115246;28;20055;-53
2023/07/14 09:07:07;;;;;;;5.10;3.13;;;25.10;72.30;;;;;;4115456;28;20125;-52
2023/07/14 09:09:15;;;;;;;4.68;2.78;;;25.20;72.60;;;;;;4115379;28;20439;-53
2023/07/14 09:11:31;;;;;;;9.25;3.55;;;25.40;71.60;;;;;;4114438;28;20046;-52
2023/07/14 09:13:54;;;;;;;5.45;2.67;;;25.50;70.70;;;;;;4115488;28;20073;-52
2023/07/14 09:15:57;;;;;;;18.40;3.83;;;25.70;70.00;;;;;;4115503;28;20047;-53
2023/07/14 09:18:14;;;;;;;13.10;3.22;;;25.70;69.30;;;;;;4098422;28;20054;-53
2023/07/14 09:20:43;;;;;;;8.90;3.17;;;25.80;69.00;;;;;;4097557;28;20105;-53
2023/07/14 09:22:51;;;;;;;18.65;3.63;;;25.90;67.70;;;;;;4115596;28;20050;-53
2023/07/14 09:25:10;;;;;;;5.72;2.75;;;25.90;67.40;;;;;;4115616;28;20053;-52
2023/07/14 09:27:21;;;;;;;8.93;3.05;;;25.90;67.30;;;;;;4115202;28;20079;-52
2023/07/14 09:29:31;;;;;;;4.53;2.70;;;25.80;67.20;;;;;;4115418;28;20376;-51
2023/07/14 09:31:39;;;;;;;12.85;3.00;;;25.90;67.80;;;;;;4114218;28;20110;-52
2023/07/14 09:33:47;;;;;;;7.55;2.75;;;25.90;66.70;;;;;;4115143;28;20094;-51
2023/07/14 09:35:50;;;;;;;5.57;2.58;;;25.90;66.10;;;;;;4115260;28;20047;-53
2023/07/14 09:37:59;;;;;;;8.30;2.88;;;25.80;66.50;;;;;;4116692;28;20125;-53
2023/07/14 09:40:17;;;;;;;4.97;2.67;;;25.80;67.00;;;;;;4130815;28;20050;-52
2023/07/14 09:42:31;;;;;;;6.30;2.60;;;25.80;66.10;;;;;;4131015;28;20046;-52
2023/07/14 09:44:33;;;;;;;7.75;3.20;;;25.90;66.90;;;;;;4130060;28;20046;-53
2023/07/14 09:46:40;;;;;;;5.25;2.78;;;26.00;67.00;;;;;;4131731;28;20042;-53
2023/07/14 09:48:47;;;;;;;6.20;2.97;;;26.10;66.50;;;;;;4131028;28;20457;-52
2023/07/14 09:50:56;;;;;;;6.32;2.60;;;26.10;66.60;;;;;;4130664;28;20508;-52
2023/07/14 09:53:03;;;;;;;15.38;2.92;;;26.10;66.40;;;;;;4131039;28;20124;-52
2023/07/14 09:55:13;;;;;;;4.38;2.65;;;26.10;66.60;;;;;;4131083;28;20489;-52
2023/07/14 09:57:18;;;;;;;9.70;2.58;;;26.20;65.90;;;;;;4131390;28;20548;-52
2023/07/14 09:59:25;;;;;;;6.00;2.70;;;26.30;66.00;;;;;;4131031;28;20077;-52
2023/07/14 10:01:29;;;;;;;6.43;2.58;;;26.40;65.90;;;;;;4130341;28;20053;-53
2023/07/14 10:03:40;;;;;;;5.85;2.88;;;26.60;66.00;;;;;;4113676;28;20047;-52
2023/07/14 10:05:51;;;;;;;4.80;2.35;;;26.80;65.70;;;;;;4115112;28;20426;-53
2023/07/14 10:07:53;;;;;;;6.15;2.55;;;26.90;65.20;;;;;;4114984;28;20047;-52
2023/07/14 10:09:59;;;;;;;10.23;2.22;;;27.00;64.30;;;;;;4114792;28;20052;-53
2023/07/14 10:12:05;;;;;;;5.75;2.72;;;27.00;65.00;;;;;;4114685;28;20101;-53
2023/07/14 10:14:19;;;;;;;4.68;2.20;;;27.00;64.60;;;;;;4115654;28;20534;-53
2023/07/14 10:16:22;;;;;;;3.17;2.30;;;27.00;64.80;;;;;;4115115;28;20054;-52
2023/07/14 10:18:24;;;;;;;6.18;2.47;;;27.00;64.30;;;;;;4113448;28;20566;-53
2023/07/14 10:20:27;;;;;;;15.60;2.80;;;27.20;64.60;;;;;;4113495;28;20061;-53
2023/07/14 10:22:31;;;;;;;5.55;2.83;;;27.10;64.00;;;;;;4114421;28;20089;-52
2023/07/14 10:24:37;;;;;;;4.50;2.38;;;27.00;64.80;;;;;;4114415;28;20046;-53
2023/07/14 10:26:42;;;;;;;5.55;2.50;;;27.00;64.30;;;;;;4114515;28;20043;-53
2023/07/14 10:28:47;;;;;;;6.13;2.80;;;27.10;64.10;;;;;;4114859;28;20047;-52
2023/07/14 10:31:02;;;;;;;8.98;2.58;;;27.10;63.80;;;;;;4113622;28;20047;-53
2023/07/14 10:33:13;;;;;;;4.77;2.90;;;27.10;63.20;;;;;;4114527;28;20043;-53
2023/07/14 10:35:18;;;;;;;10.50;2.60;;;27.00;62.80;;;;;;4114478;28;20046;-53
2023/07/14 10:37:27;;;;;;;9.23;2.85;;;26.90;62.90;;;;;;4116397;28;20175;-52
2023/07/14 10:39:36;;;;;;;10.07;2.92;;;26.80;63.10;;;;;;4102377;28;20487;-54
2023/07/14 10:41:41;;;;;;;6.13;2.78;;;26.90;63.60;;;;;;4101062;29;20410;-53
2023/07/14 10:43:50;;;;;;;15.32;2.90;;;26.80;63.50;;;;;;4102051;29;20411;-53